Time;durP1;ratioP1;P1;durP2;ratioP2;P2;SDS_P1;SDS_P2;PMS_P1;PMS_P2;Temp;Humidity;BMP_temperature;BMP_pressure;BME280_temperature;BME280_humidity;BME280_pressure;Samples;Min_cycle;Max_cycle;Signal;HPM_P1;HPM_P2
2023/12/13 00:00:50;;;;;;;25.08;14.50;;;9.60;99.90;;;;;;5092933;28;20028;-78
2023/12/13 00:03:16;;;;;;;27.60;16.90;;;9.60;99.90;;;;;;5093860;28;20032;-64
2023/12/13 00:05:42;;;;;;;27.67;16.92;;;9.60;99.90;;;;;;5093138;28;20020;-64
2023/12/13 00:08:08;;;;;;;26.90;16.57;;;9.60;99.90;;;;;;5093074;28;20032;-63
2023/12/13 00:10:34;;;;;;;26.73;16.47;;;9.50;99.90;;;;;;5093585;28;20499;-63
2023/12/13 00:17:18;;;;;;;28.23;17.23;;;9.60;99.90;;;;;;5010882;28;20070;-63
2023/12/13 00:20:40;;;;;;;29.63;17.03;;;9.50;99.90;;;;;;5028508;28;20028;-64
2023/12/13 00:24:08;;;;;;;25.33;16.13;;;9.50;99.90;;;;;;5010991;28;20080;-64
2023/12/13 00:26:34;;;;;;;27.57;16.37;;;9.50;99.90;;;;;;4977057;28;20035;-65
2023/12/13 00:29:00;;;;;;;26.13;16.80;;;9.50;99.90;;;;;;5092662;28;20024;-64
2023/12/13 00:31:26;;;;;;;28.52;16.13;;;9.50;99.90;;;;;;5092583;28;20013;-64
2023/12/13 00:33:52;;;;;;;28.07;16.23;;;9.50;99.90;;;;;;5092562;28;20055;-64
2023/12/13 00:36:18;;;;;;;25.27;15.33;;;9.50;99.90;;;;;;5092270;28;20039;-63
2023/12/13 00:38:44;;;;;;;26.23;15.47;;;9.50;99.90;;;;;;5092185;28;20020;-64
2023/12/13 00:41:09;;;;;;;29.60;15.63;;;9.50;99.90;;;;;;5092330;28;20016;-64
2023/12/13 00:43:35;;;;;;;28.17;16.77;;;9.50;99.90;;;;;;5092566;28;20012;-64
2023/12/13 00:46:01;;;;;;;28.90;15.50;;;9.50;99.90;;;;;;5092709;28;20103;-63
2023/12/13 00:48:27;;;;;;;24.73;14.93;;;9.50;99.90;;;;;;5092103;28;20044;-64
2023/12/13 00:50:53;;;;;;;26.85;15.77;;;9.50;99.90;;;;;;5092629;28;20031;-64
2023/12/13 00:53:18;;;;;;;28.67;16.93;;;9.50;99.90;;;;;;5092468;28;20024;-64
2023/12/13 00:55:44;;;;;;;27.97;16.90;;;9.50;99.90;;;;;;5092493;28;20043;-63
2023/12/13 00:58:10;;;;;;;28.87;16.93;;;9.50;99.90;;;;;;5090614;28;20104;-64
2023/12/13 01:00:35;;;;;;;29.00;17.57;;;9.50;99.90;;;;;;5091437;28;20020;-64
2023/12/13 01:03:01;;;;;;;29.93;17.10;;;9.50;99.90;;;;;;5091766;28;20032;-63
2023/12/13 01:05:27;;;;;;;27.60;16.50;;;9.40;99.90;;;;;;5091357;28;20036;-64
2023/12/13 01:07:52;;;;;;;27.80;16.27;;;9.40;99.90;;;;;;5091539;28;20035;-64
2023/12/13 01:10:20;;;;;;;29.33;16.90;;;9.50;99.90;;;;;;5091299;28;20061;-64
2023/12/13 01:12:45;;;;;;;26.93;16.90;;;9.50;99.90;;;;;;5092231;28;20471;-64
2023/12/13 01:15:11;;;;;;;27.52;16.45;;;9.50;99.90;;;;;;5092327;28;20039;-63
2023/12/13 01:17:37;;;;;;;24.87;16.13;;;9.50;99.90;;;;;;5092288;28;20431;-64
2023/12/13 01:20:06;;;;;;;27.83;18.60;;;9.50;99.90;;;;;;5095739;28;20031;-63
2023/12/13 01:22:32;;;;;;;25.30;16.37;;;9.50;99.90;;;;;;5095437;28;20023;-64
2023/12/13 01:24:58;;;;;;;26.45;16.60;;;9.50;99.90;;;;;;5095546;28;20024;-64
2023/12/13 01:27:24;;;;;;;30.40;17.80;;;9.50;99.90;;;;;;5095818;28;20135;-64
2023/12/13 01:29:50;;;;;;;29.67;18.23;;;9.50;99.90;;;;;;5095790;28;20024;-63
2023/12/13 01:32:15;;;;;;;30.20;17.58;;;9.40;99.90;;;;;;5095089;28;20099;-64
2023/12/13 01:34:41;;;;;;;23.83;15.70;;;9.50;99.90;;;;;;5095305;28;20110;-64
2023/12/13 01:37:07;;;;;;;27.95;16.30;;;9.50;99.90;;;;;;5095495;28;20016;-64
2023/12/13 01:39:32;;;;;;;27.60;16.40;;;9.50;99.90;;;;;;5093679;28;20020;-64
2023/12/13 01:41:58;;;;;;;26.17;15.77;;;9.50;99.90;;;;;;5095030;28;20107;-63
2023/12/13 01:44:24;;;;;;;29.53;16.67;;;9.50;99.90;;;;;;5095433;28;20384;-64
2023/12/13 01:46:50;;;;;;;27.47;16.07;;;9.50;99.90;;;;;;5095046;28;20495;-64
2023/12/13 01:49:17;;;;;;;24.65;15.90;;;9.50;99.90;;;;;;5094606;28;20669;-64
2023/12/13 01:51:43;;;;;;;25.60;16.80;;;9.50;99.90;;;;;;5094926;28;20479;-64
2023/12/13 01:54:14;;;;;;;28.00;15.98;;;9.50;99.90;;;;;;5095029;28;20020;-64
2023/12/13 01:56:41;;;;;;;28.63;16.63;;;9.50;99.90;;;;;;5095130;28;20032;-63
2023/12/13 01:59:07;;;;;;;30.40;17.37;;;9.50;99.90;;;;;;5092580;28;20113;-63
2023/12/13 02:01:33;;;;;;;30.23;16.67;;;9.50;99.90;;;;;;5092076;28;20020;-63
2023/12/13 02:04:00;;;;;;;29.17;17.93;;;9.50;99.90;;;;;;5092352;28;20472;-64
2023/12/13 02:06:26;;;;;;;28.53;17.50;;;9.50;99.90;;;;;;5094465;28;20093;-63
2023/12/13 02:08:51;;;;;;;29.60;17.23;;;9.50;99.90;;;;;;5094474;28;20483;-63
2023/12/13 02:11:17;;;;;;;31.53;17.83;;;9.40;99.90;;;;;;5094947;28;20020;-64
2023/12/13 02:13:44;;;;;;;29.37;17.97;;;9.50;99.90;;;;;;5094528;28;20053;-64
2023/12/13 02:16:09;;;;;;;29.87;18.13;;;9.50;99.90;;;;;;5094838;28;20036;-64
2023/12/13 02:18:35;;;;;;;31.80;18.03;;;9.50;99.90;;;;;;5094404;28;20034;-64
2023/12/13 02:21:01;;;;;;;29.55;18.05;;;9.50;99.90;;;;;;5094319;28;20062;-63
2023/12/13 02:23:27;;;;;;;31.43;18.40;;;9.40;99.90;;;;;;5094562;28;20035;-64
2023/12/13 02:25:56;;;;;;;24.57;16.07;;;9.40;99.90;;;;;;5094431;28;20032;-64
2023/12/13 02:28:24;;;;;;;24.33;14.63;;;9.50;99.90;;;;;;5094478;28;20032;-63
2023/12/13 02:30:52;;;;;;;19.13;13.10;;;9.40;99.90;;;;;;5094247;28;20035;-64
2023/12/13 02:33:21;;;;;;;17.93;11.27;;;9.40;99.90;;;;;;5093773;28;20039;-63
2023/12/13 02:35:47;;;;;;;16.67;11.70;;;9.40;99.90;;;;;;5093725;28;20119;-63
2023/12/13 02:38:13;;;;;;;18.43;11.67;;;9.40;99.90;;;;;;5094412;28;20107;-64
2023/12/13 02:40:39;;;;;;;16.07;11.40;;;9.40;99.90;;;;;;5094249;28;20051;-63
2023/12/13 02:43:04;;;;;;;17.33;10.97;;;9.40;99.90;;;;;;5093361;28;20099;-64
2023/12/13 02:45:30;;;;;;;21.17;12.00;;;9.40;99.90;;;;;;5093974;28;20055;-64
2023/12/13 02:47:59;;;;;;;16.93;10.93;;;9.40;99.90;;;;;;5094127;28;20040;-63
2023/12/13 02:50:25;;;;;;;14.20;11.00;;;9.40;99.90;;;;;;5094026;28;20024;-64
2023/12/13 02:52:51;;;;;;;14.17;9.00;;;9.40;99.90;;;;;;5094169;28;20536;-64
2023/12/13 02:55:17;;;;;;;10.77;7.87;;;9.40;99.90;;;;;;5094107;28;20051;-65
2023/12/13 02:57:42;;;;;;;10.30;6.63;;;9.40;99.90;;;;;;5093999;28;20032;-64
2023/12/13 03:00:09;;;;;;;7.37;6.13;;;9.40;99.90;;;;;;5094022;28;20032;-64
2023/12/13 03:02:35;;;;;;;8.40;5.70;;;9.40;99.90;;;;;;5093566;28;20029;-64
2023/12/13 03:05:03;;;;;;;9.00;6.03;;;9.40;99.90;;;;;;5093445;28;20023;-63
2023/12/13 03:07:29;;;;;;;7.47;5.53;;;9.40;99.90;;;;;;5094000;28;20020;-64
2023/12/13 03:09:54;;;;;;;7.83;6.37;;;9.40;99.90;;;;;;5092315;28;20030;-64
2023/12/13 03:12:20;;;;;;;8.07;6.43;;;9.40;99.90;;;;;;5093489;28;20320;-63
2023/12/13 03:14:46;;;;;;;8.63;5.97;;;9.40;99.90;;;;;;5093471;28;20028;-64
2023/12/13 03:17:12;;;;;;;7.97;5.93;;;9.40;99.90;;;;;;5094007;28;20114;-64
2023/12/13 03:19:38;;;;;;;8.90;5.77;;;9.40;99.90;;;;;;5093718;28;20472;-64
2023/12/13 03:22:04;;;;;;;8.33;5.90;;;9.40;99.90;;;;;;5093517;28;20028;-63
2023/12/13 03:24:30;;;;;;;7.00;5.30;;;9.40;99.90;;;;;;5093250;28;20388;-64
2023/12/13 03:26:56;;;;;;;8.03;5.90;;;9.40;99.90;;;;;;5093671;28;20035;-63
2023/12/13 03:29:22;;;;;;;9.10;6.03;;;9.40;99.90;;;;;;5093302;28;20429;-64
2023/12/13 03:31:48;;;;;;;8.33;6.10;;;9.40;99.90;;;;;;5093247;28;20050;-64
2023/12/13 03:34:17;;;;;;;11.17;7.27;;;9.40;99.90;;;;;;5093440;28;20023;-63
2023/12/13 03:36:42;;;;;;;10.30;6.83;;;9.40;99.90;;;;;;5093190;28;20117;-63
2023/12/13 03:39:08;;;;;;;10.17;6.90;;;9.40;99.90;;;;;;5093048;28;20063;-64
2023/12/13 03:41:34;;;;;;;8.60;6.20;;;9.40;99.90;;;;;;5092661;28;20036;-63
2023/12/13 03:44:00;;;;;;;11.57;7.37;;;9.40;99.90;;;;;;5093561;28;20491;-64
2023/12/13 03:46:26;;;;;;;10.83;6.93;;;9.50;99.90;;;;;;5092953;28;20047;-64
2023/12/13 03:48:52;;;;;;;9.33;7.27;;;9.50;99.90;;;;;;5093026;28;20131;-64
2023/12/13 03:51:17;;;;;;;11.10;8.30;;;9.50;99.90;;;;;;5093062;28;20031;-63
2023/12/13 03:53:43;;;;;;;13.23;8.87;;;9.40;99.90;;;;;;5093215;28;20065;-65
2023/12/13 03:56:12;;;;;;;12.27;9.50;;;9.50;99.90;;;;;;5092909;28;20039;-66
2023/12/13 03:58:38;;;;;;;14.60;10.83;;;9.40;99.90;;;;;;5092919;28;20024;-64
2023/12/13 04:01:04;;;;;;;13.23;10.43;;;9.40;99.90;;;;;;5092179;28;20020;-63
2023/12/13 04:03:30;;;;;;;14.93;10.50;;;9.40;99.90;;;;;;5092150;28;20028;-63
2023/12/13 04:05:56;;;;;;;13.90;10.87;;;9.50;99.90;;;;;;5092814;28;20468;-64
2023/12/13 04:08:21;;;;;;;15.93;11.20;;;9.40;99.90;;;;;;5092396;28;20024;-64
2023/12/13 04:10:47;;;;;;;15.30;11.33;;;9.40;99.90;;;;;;5092627;28;20024;-63
2023/12/13 04:13:13;;;;;;;13.80;11.33;;;9.40;99.90;;;;;;5092600;28;20036;-64
2023/12/13 04:15:39;;;;;;;14.37;10.97;;;9.40;99.90;;;;;;5092722;28;20036;-66
2023/12/13 04:18:05;;;;;;;17.37;12.53;;;9.40;99.90;;;;;;5092787;28;20047;-64
2023/12/13 04:20:30;;;;;;;17.43;15.60;;;9.40;99.90;;;;;;5092708;28;20024;-64
2023/12/13 04:22:56;;;;;;;15.73;13.73;;;9.40;99.90;;;;;;5093043;28;20031;-64
2023/12/13 04:25:22;;;;;;;14.97;12.47;;;9.40;99.90;;;;;;5092676;28;20101;-63
2023/12/13 04:27:48;;;;;;;16.03;12.43;;;9.40;99.90;;;;;;5092881;28;20059;-63
2023/12/13 04:30:14;;;;;;;13.30;10.50;;;9.40;99.90;;;;;;5092860;28;20077;-63
2023/12/13 04:32:40;;;;;;;11.00;8.27;;;9.40;99.90;;;;;;5092711;28;20556;-63
2023/12/13 04:35:08;;;;;;;9.00;7.20;;;9.40;99.90;;;;;;5092644;28;20036;-64
2023/12/13 04:37:34;;;;;;;10.07;6.93;;;9.40;99.90;;;;;;5092589;28;20025;-64
2023/12/13 04:42:38;;;;;;;6.53;5.07;;;9.40;99.90;;;;;;5091080;28;20044;-65
2023/12/13 04:45:04;;;;;;;6.10;4.60;;;9.40;99.90;;;;;;5092260;28;20020;-65
2023/12/13 04:47:30;;;;;;;5.93;4.37;;;9.40;99.90;;;;;;5092745;28;20077;-65
2023/12/13 04:49:56;;;;;;;6.23;4.40;;;9.40;99.90;;;;;;5092583;28;20028;-66
2023/12/13 04:52:21;;;;;;;4.57;3.80;;;9.40;99.90;;;;;;5094435;28;20111;-66
2023/12/13 04:54:47;;;;;;;5.43;4.40;;;9.40;99.90;;;;;;5104670;28;20019;-65
2023/12/13 04:57:13;;;;;;;7.82;4.10;;;9.40;99.90;;;;;;5116371;28;20024;-65
2023/12/13 04:59:39;;;;;;;5.87;4.10;;;9.40;99.90;;;;;;5116583;28;20027;-68
2023/12/13 05:02:04;;;;;;;6.03;4.07;;;9.40;99.90;;;;;;5116729;28;20020;-66
2023/12/13 05:04:30;;;;;;;8.07;3.45;;;9.40;99.90;;;;;;5112893;28;20016;-66
2023/12/13 05:06:56;;;;;;;5.17;3.50;;;9.40;99.90;;;;;;5105249;28;20028;-66
2023/12/13 05:09:22;;;;;;;5.05;3.70;;;9.40;99.90;;;;;;5094901;28;20100;-66
2023/12/13 05:11:48;;;;;;;4.95;3.80;;;9.40;99.90;;;;;;5095953;28;20073;-66
2023/12/13 05:14:14;;;;;;;4.22;3.13;;;9.40;99.90;;;;;;5095766;28;20032;-66
2023/12/13 05:16:39;;;;;;;4.60;3.30;;;9.40;99.90;;;;;;5096249;28;20055;-66
2023/12/13 05:19:05;;;;;;;3.80;2.92;;;9.40;99.90;;;;;;5096089;28;20051;-66
2023/12/13 05:21:31;;;;;;;3.90;3.10;;;9.40;99.90;;;;;;5096052;28;20051;-66
2023/12/13 05:23:57;;;;;;;5.03;2.90;;;9.40;99.90;;;;;;5095711;28;20103;-66
2023/12/13 05:26:22;;;;;;;7.23;4.10;;;9.40;99.90;;;;;;5095646;28;20055;-66
2023/12/13 05:28:48;;;;;;;5.23;4.23;;;9.40;99.90;;;;;;5095677;28;20024;-66
2023/12/13 05:31:22;;;;;;;5.43;4.00;;;9.40;99.90;;;;;;5095739;28;20059;-66
2023/12/13 05:33:48;;;;;;;5.67;4.30;;;9.40;99.90;;;;;;5095478;28;20596;-66
2023/12/13 05:36:14;;;;;;;6.83;5.00;;;9.40;99.90;;;;;;5095407;28;20479;-66
2023/12/13 05:38:41;;;;;;;5.40;4.73;;;9.40;99.90;;;;;;5095643;28;20020;-66
2023/12/13 05:41:07;;;;;;;6.73;4.53;;;9.40;99.90;;;;;;5095022;28;20575;-68
2023/12/13 05:43:36;;;;;;;9.07;5.97;;;9.40;99.90;;;;;;5095397;28;20162;-69
2023/12/13 05:46:06;;;;;;;11.83;6.10;;;9.40;99.90;;;;;;5095243;28;20024;-66
2023/12/13 05:48:32;;;;;;;9.33;7.40;;;9.40;99.90;;;;;;5095225;28;20032;-66
2023/12/13 05:50:58;;;;;;;11.47;7.60;;;9.40;99.90;;;;;;5095394;28;20498;-67
2023/12/13 05:53:24;;;;;;;12.63;7.90;;;9.50;99.90;;;;;;5095218;28;20158;-66
2023/12/13 05:55:50;;;;;;;9.10;7.87;;;9.40;99.90;;;;;;5095181;28;20107;-66
2023/12/13 05:58:16;;;;;;;10.20;8.47;;;9.40;99.90;;;;;;5095018;28;20027;-66
2023/12/13 06:00:41;;;;;;;9.87;8.67;;;9.40;99.90;;;;;;5094582;28;20096;-66
2023/12/13 06:03:07;;;;;;;10.30;8.00;;;9.40;99.90;;;;;;5094881;28;20024;-66
2023/12/13 06:05:33;;;;;;;8.97;7.47;;;9.40;99.90;;;;;;5094491;28;20103;-65
2023/12/13 06:07:59;;;;;;;10.33;8.23;;;9.40;99.90;;;;;;5094671;28;20097;-66
2023/12/13 06:10:25;;;;;;;11.10;8.37;;;9.40;99.90;;;;;;5094685;28;20035;-66
2023/12/13 06:12:52;;;;;;;11.20;8.43;;;9.40;99.90;;;;;;5094790;28;20020;-65
2023/12/13 06:15:19;;;;;;;11.23;9.60;;;9.40;99.90;;;;;;5094438;28;20399;-66
2023/12/13 06:17:44;;;;;;;14.23;8.77;;;9.40;99.90;;;;;;5094569;28;20024;-66
2023/12/13 06:20:11;;;;;;;13.33;9.00;;;9.40;99.90;;;;;;5094601;28;20024;-66
2023/12/13 06:22:37;;;;;;;11.90;9.03;;;9.40;99.90;;;;;;5094567;28;20467;-66
2023/12/13 06:25:02;;;;;;;12.37;9.20;;;9.50;99.90;;;;;;5094713;28;20041;-67
2023/12/13 06:27:28;;;;;;;10.77;8.93;;;9.50;99.90;;;;;;5094600;28;20059;-66
2023/12/13 06:29:54;;;;;;;10.83;8.60;;;9.40;99.90;;;;;;5094526;28;20066;-66
2023/12/13 06:32:20;;;;;;;10.33;7.90;;;9.40;99.90;;;;;;5094367;28;20039;-65
2023/12/13 06:34:47;;;;;;;10.03;8.50;;;9.50;99.90;;;;;;5094487;28;20082;-66
2023/12/13 06:37:12;;;;;;;9.00;6.70;;;9.50;99.90;;;;;;5094364;28;20399;-66
2023/12/13 06:39:38;;;;;;;10.77;6.35;;;9.50;99.90;;;;;;5093695;28;20031;-65
2023/12/13 06:42:08;;;;;;;6.60;5.70;;;9.50;99.90;;;;;;5093345;28;20079;-65
2023/12/13 06:44:38;;;;;;;8.23;6.00;;;9.50;99.90;;;;;;5074538;28;20480;-66
2023/12/13 06:47:05;;;;;;;6.43;5.10;;;9.50;99.90;;;;;;5073581;28;20029;-66
2023/12/13 06:49:34;;;;;;;6.77;5.47;;;9.50;99.90;;;;;;5073345;28;20175;-66
2023/12/13 06:52:01;;;;;;;8.23;6.10;;;9.50;99.90;;;;;;5073437;28;20376;-66
2023/12/13 06:54:28;;;;;;;6.27;5.03;;;9.50;99.90;;;;;;5073281;28;20125;-66
2023/12/13 06:56:54;;;;;;;6.07;4.80;;;9.50;99.90;;;;;;5073095;28;20024;-66
2023/12/13 06:59:20;;;;;;;6.03;5.33;;;9.50;99.90;;;;;;5073133;28;20552;-66
2023/12/13 07:01:46;;;;;;;6.57;5.40;;;9.50;99.90;;;;;;5073021;28;20099;-66
2023/12/13 07:04:12;;;;;;;5.87;5.00;;;9.50;99.90;;;;;;5072897;28;20020;-65
2023/12/13 07:06:38;;;;;;;6.80;4.77;;;9.60;99.90;;;;;;5073057;28;20024;-66
2023/12/13 07:09:04;;;;;;;7.63;4.57;;;9.50;99.90;;;;;;5073015;28;20032;-65
2023/12/13 07:11:30;;;;;;;6.30;4.63;;;9.60;99.90;;;;;;5072673;28;20039;-65
2023/12/13 07:13:55;;;;;;;5.27;4.57;;;9.50;99.90;;;;;;5073177;28;20507;-66
2023/12/13 07:16:21;;;;;;;5.30;4.03;;;9.60;99.90;;;;;;5072317;28;20033;-70
2023/12/13 07:18:47;;;;;;;23.97;4.70;;;9.60;99.90;;;;;;5072687;28;20020;-67
2023/12/13 07:21:13;;;;;;;4.93;3.80;;;9.60;99.90;;;;;;5072866;28;20052;-67
2023/12/13 07:23:40;;;;;;;10.47;4.00;;;9.60;99.90;;;;;;5073303;28;20027;-69
2023/12/13 07:26:06;;;;;;;5.03;4.13;;;9.60;99.90;;;;;;5090483;28;20019;-67
2023/12/13 07:28:32;;;;;;;5.93;4.10;;;9.70;99.90;;;;;;5094120;28;20027;-67
2023/12/13 07:31:03;;;;;;;5.60;4.30;;;9.70;99.90;;;;;;5105236;28;20528;-68
2023/12/13 07:33:28;;;;;;;4.73;4.17;;;9.70;99.90;;;;;;5093008;28;20495;-70
2023/12/13 07:35:54;;;;;;;5.87;4.63;;;9.70;99.90;;;;;;5084502;28;20071;-67
2023/12/13 07:38:20;;;;;;;5.47;4.80;;;9.60;99.90;;;;;;5072471;28;20052;-73
2023/12/13 07:40:47;;;;;;;6.65;5.95;;;9.70;99.90;;;;;;5097285;28;20109;-69
2023/12/13 07:43:13;;;;;;;7.85;5.50;;;9.70;99.90;;;;;;5094095;28;20076;-69
2023/12/13 07:45:39;;;;;;;6.72;5.90;;;9.70;99.90;;;;;;5100947;28;20025;-69
2023/12/13 07:48:05;;;;;;;6.83;5.17;;;9.70;99.90;;;;;;5072165;28;20043;-68
2023/12/13 07:50:31;;;;;;;6.30;5.70;;;9.70;99.90;;;;;;5071491;28;20029;-69
2023/12/13 07:52:57;;;;;;;7.93;6.07;;;9.70;99.90;;;;;;5071007;28;20024;-69
2023/12/13 07:55:23;;;;;;;7.18;6.47;;;9.70;99.90;;;;;;5071769;28;20103;-77
2023/12/13 07:57:49;;;;;;;9.52;7.45;;;9.70;99.90;;;;;;5071912;28;20012;-71
2023/12/13 08:00:16;;;;;;;8.97;7.10;;;9.70;99.90;;;;;;5071737;28;20042;-71
2023/12/13 08:02:42;;;;;;;8.43;7.00;;;9.70;99.90;;;;;;5071355;28;20025;-72
2023/12/13 08:05:08;;;;;;;8.87;7.83;;;9.70;99.90;;;;;;5087621;28;20027;-72
2023/12/13 08:07:35;;;;;;;8.87;7.60;;;9.70;99.90;;;;;;5104625;28;20034;-72
2023/12/13 08:10:07;;;;;;;10.80;8.40;;;9.70;99.90;;;;;;5108286;28;20078;-72
2023/12/13 08:12:36;;;;;;;9.95;8.32;;;9.70;99.90;;;;;;5092923;28;20114;-72
2023/12/13 08:15:05;;;;;;;9.52;8.15;;;9.70;99.90;;;;;;5072444;28;20036;-71
2023/12/13 08:17:31;;;;;;;9.90;8.90;;;9.80;99.90;;;;;;5072390;28;20048;-72
2023/12/13 08:19:57;;;;;;;12.05;9.82;;;9.70;99.90;;;;;;5072612;28;20123;-72
2023/12/13 08:22:22;;;;;;;13.13;9.50;;;9.80;99.90;;;;;;5072312;28;20427;-72
2023/12/13 08:24:48;;;;;;;9.82;8.85;;;9.80;99.90;;;;;;5072665;28;20463;-72
2023/12/13 08:27:14;;;;;;;11.53;9.60;;;9.80;99.90;;;;;;5073454;28;20102;-72
2023/12/13 08:29:40;;;;;;;10.10;8.37;;;9.80;99.90;;;;;;5076491;28;20054;-72
2023/12/13 08:32:06;;;;;;;9.80;8.70;;;9.80;99.90;;;;;;5076274;28;20025;-72
2023/12/13 08:34:32;;;;;;;11.60;8.33;;;9.80;99.90;;;;;;5076360;28;20456;-72
2023/12/13 08:36:59;;;;;;;10.80;8.70;;;9.80;99.90;;;;;;5090497;28;20054;-72
2023/12/13 08:39:24;;;;;;;8.80;7.50;;;9.80;99.90;;;;;;5117115;28;20030;-71
2023/12/13 08:41:50;;;;;;;11.18;8.52;;;9.80;99.90;;;;;;5116779;28;20122;-72
2023/12/13 08:44:16;;;;;;;10.95;7.93;;;9.80;99.90;;;;;;5116979;28;20106;-72
2023/12/13 08:46:42;;;;;;;9.70;8.35;;;9.90;99.90;;;;;;5116842;28;20114;-72
2023/12/13 08:49:07;;;;;;;10.37;8.07;;;9.90;99.90;;;;;;5116982;28;20035;-72
2023/12/13 08:51:33;;;;;;;12.00;9.70;;;9.90;99.90;;;;;;5116641;28;20041;-72
2023/12/13 08:53:59;;;;;;;12.53;10.27;;;9.90;99.90;;;;;;5116844;28;20471;-72
2023/12/13 08:56:25;;;;;;;13.23;10.38;;;9.90;99.90;;;;;;5113944;28;20038;-72
2023/12/13 08:58:50;;;;;;;15.85;10.50;;;9.90;99.90;;;;;;5096649;28;20028;-72
2023/12/13 09:01:16;;;;;;;12.73;10.13;;;9.90;99.90;;;;;;5116694;28;20165;-72
2023/12/13 09:03:42;;;;;;;14.63;10.27;;;9.90;99.90;;;;;;5116311;28;20062;-72
2023/12/13 09:06:09;;;;;;;10.93;8.63;;;9.90;99.90;;;;;;5116243;28;20120;-73
2023/12/13 09:08:35;;;;;;;12.90;9.27;;;9.90;99.90;;;;;;5116434;28;20375;-73
2023/12/13 09:11:00;;;;;;;11.02;8.82;;;9.90;99.90;;;;;;5116403;28;20024;-73
2023/12/13 09:13:27;;;;;;;11.63;9.10;;;9.90;99.90;;;;;;5116264;28;20035;-73
2023/12/13 09:15:52;;;;;;;11.97;8.30;;;9.90;99.90;;;;;;5116092;28;20498;-73
2023/12/13 09:18:19;;;;;;;18.27;11.45;;;9.90;99.90;;;;;;5116398;28;20103;-72
2023/12/13 09:20:45;;;;;;;13.47;9.40;;;9.90;99.90;;;;;;5116321;28;20034;-73
2023/12/13 09:23:21;;;;;;;9.13;7.00;;;9.90;99.90;;;;;;5116275;28;20031;-72
2023/12/13 09:25:46;;;;;;;8.73;6.07;;;10.00;99.90;;;;;;5115780;28;20039;-72
2023/12/13 09:28:12;;;;;;;8.93;6.30;;;10.00;99.90;;;;;;5100306;28;20471;-72
2023/12/13 09:30:38;;;;;;;8.55;5.47;;;10.00;99.90;;;;;;5095579;28;20016;-72
2023/12/13 09:33:04;;;;;;;7.35;5.68;;;10.00;99.90;;;;;;5095648;28;20024;-72
2023/12/13 09:35:29;;;;;;;8.23;5.87;;;10.00;99.90;;;;;;5095229;28;20533;-73
2023/12/13 09:37:55;;;;;;;16.07;9.10;;;10.00;99.90;;;;;;5095799;28;20043;-73
2023/12/13 09:40:21;;;;;;;28.80;14.37;;;10.00;99.90;;;;;;5094417;28;20028;-72
2023/12/13 09:42:47;;;;;;;44.63;22.30;;;10.00;99.90;;;;;;5095299;28;20497;-73
2023/12/13 09:45:21;;;;;;;21.57;12.43;;;10.00;99.90;;;;;;5095038;28;20028;-73
2023/12/13 09:47:52;;;;;;;12.95;6.30;;;10.00;99.90;;;;;;5095349;28;20542;-73
2023/12/13 09:50:22;;;;;;;11.73;6.30;;;10.00;99.90;;;;;;5094992;28;20035;-73
2023/12/13 09:52:49;;;;;;;13.30;8.20;;;10.00;99.90;;;;;;5095008;28;20492;-73
2023/12/13 09:55:15;;;;;;;16.55;9.88;;;10.00;99.90;;;;;;5095060;28;20484;-73
2023/12/13 09:57:41;;;;;;;11.00;6.47;;;9.90;99.90;;;;;;5094992;28;20024;-72
2023/12/13 10:00:09;;;;;;;12.37;6.43;;;9.90;99.90;;;;;;5094050;28;20051;-73
2023/12/13 10:02:37;;;;;;;12.73;7.20;;;10.00;99.90;;;;;;5095191;28;20047;-73
2023/12/13 10:05:05;;;;;;;60.90;35.83;;;9.90;99.90;;;;;;5095211;28;20044;-73
2023/12/13 10:07:31;;;;;;;107.60;64.60;;;9.90;99.90;;;;;;5094864;28;20069;-73
2023/12/13 10:09:56;;;;;;;26.92;17.17;;;10.00;99.90;;;;;;5094237;28;20016;-72
2023/12/13 10:12:25;;;;;;;13.90;9.00;;;10.00;99.90;;;;;;5094614;28;20027;-73
2023/12/13 10:14:50;;;;;;;34.63;23.17;;;9.90;99.90;;;;;;5094741;28;20035;-72
2023/12/13 10:17:20;;;;;;;17.40;12.47;;;9.90;99.90;;;;;;5094754;28;20032;-73
2023/12/13 10:19:47;;;;;;;11.60;6.80;;;10.00;99.90;;;;;;5094164;28;20020;-73
2023/12/13 10:22:13;;;;;;;9.52;6.10;;;9.90;99.90;;;;;;5094535;28;20042;-73
2023/12/13 10:24:39;;;;;;;9.05;5.28;;;9.90;99.90;;;;;;5094667;28;20811;-73
2023/12/13 10:27:05;;;;;;;11.30;6.47;;;10.00;99.90;;;;;;5094834;28;20024;-74
2023/12/13 10:29:30;;;;;;;11.57;9.20;;;10.00;99.90;;;;;;5094263;28;20093;-73
2023/12/13 10:31:58;;;;;;;11.90;7.90;;;9.90;99.90;;;;;;5094109;28;20024;-73
2023/12/13 10:34:23;;;;;;;17.13;6.60;;;10.00;99.90;;;;;;5092736;28;20060;-73
2023/12/13 10:36:49;;;;;;;12.32;6.72;;;10.00;99.90;;;;;;5094170;28;20064;-73
2023/12/13 10:39:16;;;;;;;18.00;9.37;;;10.00;99.90;;;;;;5094311;28;20567;-73
2023/12/13 10:41:44;;;;;;;18.52;13.15;;;10.00;99.90;;;;;;5095453;28;20486;-73
2023/12/13 10:44:15;;;;;;;17.58;13.68;;;10.00;99.90;;;;;;5097383;28;20063;-74
2023/12/13 10:46:46;;;;;;;11.27;7.80;;;10.00;99.90;;;;;;5095906;28;20056;-72
2023/12/13 10:49:20;;;;;;;16.42;7.07;;;10.00;99.90;;;;;;5094871;28;20487;-73
2023/12/13 10:51:48;;;;;;;8.40;5.50;;;10.00;99.90;;;;;;5096261;28;20031;-73
2023/12/13 10:54:14;;;;;;;9.13;5.47;;;10.00;99.90;;;;;;5102083;28;20475;-73
2023/12/13 10:56:41;;;;;;;10.73;7.30;;;10.00;99.90;;;;;;5112922;28;20042;-72
2023/12/13 10:59:11;;;;;;;13.52;7.88;;;10.00;99.90;;;;;;5117470;28;20027;-73
2023/12/13 11:01:41;;;;;;;16.45;5.50;;;10.00;99.90;;;;;;5114571;28;20026;-73
2023/12/13 11:04:10;;;;;;;9.98;5.95;;;10.00;99.90;;;;;;5101590;28;20085;-73
2023/12/13 11:06:39;;;;;;;9.83;7.63;;;10.00;99.90;;;;;;5093876;28;20085;-73
2023/12/13 11:09:15;;;;;;;12.45;7.50;;;10.00;99.90;;;;;;5092851;28;20043;-73
2023/12/13 11:11:42;;;;;;;13.70;7.80;;;10.00;99.90;;;;;;5105671;28;20534;-73
2023/12/13 11:14:09;;;;;;;10.75;7.40;;;10.00;99.90;;;;;;5114150;28;20364;-73
2023/12/13 11:16:39;;;;;;;9.38;5.72;;;10.00;99.90;;;;;;5114081;28;20027;-73
2023/12/13 11:19:05;;;;;;;9.55;5.70;;;10.00;99.90;;;;;;5114149;28;20024;-73
2023/12/13 11:21:33;;;;;;;9.45;5.50;;;10.00;99.90;;;;;;5114096;28;20032;-73
2023/12/13 11:24:12;;;;;;;6.90;5.50;;;10.00;99.90;;;;;;5113967;28;20019;-73
2023/12/13 11:26:49;;;;;;;8.07;5.10;;;10.00;99.90;;;;;;5114129;28;20055;-73
2023/12/13 11:29:24;;;;;;;13.55;7.00;;;10.00;99.90;;;;;;5113843;28;20106;-73
2023/12/13 11:31:57;;;;;;;11.65;7.28;;;10.00;99.90;;;;;;5113840;28;20023;-73
2023/12/13 11:34:33;;;;;;;8.95;6.10;;;10.00;99.90;;;;;;5113686;28;20501;-73
2023/12/13 11:37:10;;;;;;;8.23;5.83;;;10.10;99.90;;;;;;5112754;28;20038;-74
2023/12/13 11:39:38;;;;;;;11.30;6.50;;;10.10;99.90;;;;;;5091883;28;20024;-73
2023/12/13 11:42:07;;;;;;;7.70;5.60;;;10.10;99.90;;;;;;5093346;28;20044;-74
2023/12/13 11:44:34;;;;;;;9.88;6.13;;;10.10;99.90;;;;;;5113469;28;20039;-73
2023/12/13 11:47:03;;;;;;;8.90;5.60;;;10.10;99.90;;;;;;5113333;28;20028;-74
2023/12/13 11:49:29;;;;;;;9.52;6.60;;;10.10;99.90;;;;;;5113469;28;20019;-73
2023/12/13 11:51:56;;;;;;;11.35;8.18;;;10.10;99.90;;;;;;5113347;28;20467;-73
2023/12/13 11:54:22;;;;;;;11.80;8.40;;;10.10;99.90;;;;;;5113194;28;20024;-72
2023/12/13 11:56:48;;;;;;;14.35;9.18;;;10.10;99.90;;;;;;5113247;28;20028;-73
2023/12/13 11:59:14;;;;;;;16.65;11.75;;;10.10;99.90;;;;;;5113193;28;20019;-73
2023/12/13 12:01:40;;;;;;;17.25;11.23;;;10.10;99.90;;;;;;5094689;28;20023;-73
2023/12/13 12:04:07;;;;;;;13.18;9.80;;;10.10;99.90;;;;;;5111709;28;20490;-73
2023/12/13 12:06:32;;;;;;;14.15;10.05;;;10.10;99.90;;;;;;5113479;28;20023;-73
2023/12/13 12:09:02;;;;;;;14.88;10.68;;;10.10;99.90;;;;;;5113522;28;20038;-74
2023/12/13 12:11:28;;;;;;;12.32;9.35;;;10.10;99.90;;;;;;5113417;28;20114;-74
2023/12/13 12:13:57;;;;;;;13.45;8.10;;;10.10;99.90;;;;;;5113249;28;20055;-74
2023/12/13 12:16:23;;;;;;;12.00;7.47;;;10.20;99.90;;;;;;5113236;28;20479;-74
2023/12/13 12:18:49;;;;;;;10.77;7.70;;;10.10;99.90;;;;;;5095089;28;20024;-74
2023/12/13 12:21:15;;;;;;;156.63;14.40;;;10.10;99.90;;;;;;5112919;28;20364;-74
2023/12/13 12:23:44;;;;;;;12.32;8.82;;;10.10;99.90;;;;;;5113200;28;20019;-73
2023/12/13 12:26:12;;;;;;;15.25;9.15;;;10.10;99.90;;;;;;5113173;28;20055;-75
2023/12/13 12:28:40;;;;;;;12.90;8.70;;;10.10;99.90;;;;;;5112817;28;20098;-74
2023/12/13 12:31:08;;;;;;;15.82;8.95;;;10.10;99.90;;;;;;5112453;28;20023;-73
2023/12/13 12:33:34;;;;;;;13.50;8.53;;;10.10;99.90;;;;;;5113068;28;20023;-74
2023/12/13 12:36:00;;;;;;;11.13;8.40;;;10.20;99.90;;;;;;5113093;28;20051;-74
2023/12/13 12:38:26;;;;;;;16.55;9.98;;;10.10;99.90;;;;;;5113162;28;20020;-74
2023/12/13 12:40:52;;;;;;;19.70;11.53;;;10.20;99.90;;;;;;5112652;28;20070;-74
2023/12/13 12:43:19;;;;;;;20.30;13.00;;;10.10;99.90;;;;;;5112747;28;20024;-74
2023/12/13 12:45:46;;;;;;;25.70;13.10;;;10.20;99.90;;;;;;5112633;28;20022;-74
2023/12/13 12:48:13;;;;;;;13.60;10.40;;;10.10;99.90;;;;;;5112605;28;20092;-74
2023/12/13 12:50:39;;;;;;;35.10;27.43;;;10.10;99.90;;;;;;5112581;28;20096;-74